Gonzales, California
Current Conditions -  °F | °C
As of 4:53 PM on Thursday 27 Nov 2014 (Local Time) from KSNS Reporting Station
Clear Clear  
Wind Chill: 67°   Ceiling: Unl
Heat Index: 67°   Visibility: 10mi
Dew Point: 47°   Wind: 3mph
Humidity: 49%   Direction: 300°WNW
Pressure: 30.06"   Gusts: NA
Location:  36.51°N, 121.44°W
Report Text: KSNS 280053Z AUTO 30003KT 10SM CLR 19/08 A3006 RMK AO2 SLP189 T01940083 TSNO
Loading
Personal Weather Stations






























Interactive Weather Map New forecast layout! Learn more

10-Day Weather Forecast

Advertisements
Track Severe Weather on mobile